createdAt,value
2023-06-13T00:00:53.001Z,7.00
2023-06-13T00:01:54.822Z,7.40
2023-06-13T00:02:57.633Z,7.07
2023-06-13T00:04:02.724Z,7.68
2023-06-13T00:05:06.973Z,8.48
2023-06-13T00:06:09.039Z,7.20
2023-06-13T00:07:10.779Z,7.18
2023-06-13T00:08:19.504Z,7.50
2023-06-13T00:09:22.300Z,7.50
2023-06-13T00:10:24.162Z,6.35
2023-06-13T00:11:26.513Z,7.18
2023-06-13T00:12:28.579Z,6.55
2023-06-13T00:13:30.546Z,7.05
2023-06-13T00:14:32.826Z,7.50
2023-06-13T00:15:37.111Z,7.45
2023-06-13T00:16:39.796Z,7.22
2023-06-13T00:17:42.088Z,8.10
2023-06-13T00:18:45.512Z,8.10
2023-06-13T00:19:47.731Z,9.32
2023-06-13T00:20:51.154Z,7.13
2023-06-13T00:21:52.978Z,7.78
2023-06-13T00:22:57.621Z,6.85
2023-06-13T00:23:59.678Z,6.40
2023-06-13T00:25:01.946Z,7.85
2023-06-13T00:26:04.028Z,9.02
2023-06-13T00:27:06.233Z,7.65
2023-06-13T00:28:07.999Z,6.40
2023-06-13T00:29:09.926Z,6.93
2023-06-13T00:30:12.077Z,7.22
2023-06-13T00:31:14.159Z,7.32
2023-06-13T00:32:16.590Z,7.20
2023-06-13T00:33:18.603Z,8.55
2023-06-13T00:34:20.275Z,9.88
2023-06-13T00:35:22.616Z,8.07
2023-06-13T00:36:26.409Z,8.18
2023-06-13T00:37:30.886Z,6.78
2023-06-13T00:38:33.353Z,7.50
2023-06-13T00:39:35.395Z,6.68
2023-06-13T00:40:37.242Z,7.88
2023-06-13T00:41:39.404Z,6.88
2023-06-13T00:42:41.161Z,7.60
2023-06-13T00:43:42.990Z,6.03
2023-06-13T00:44:44.869Z,7.38
2023-06-13T00:45:48.295Z,7.88
2023-06-13T00:46:50.380Z,7.68
2023-06-13T00:48:01.250Z,7.35
2023-06-13T00:49:05.643Z,7.47
2023-06-13T00:50:07.705Z,8.32
2023-06-13T00:51:10.907Z,9.45
2023-06-13T00:52:13.620Z,6.53
2023-06-13T00:53:19.777Z,7.78
2023-06-13T00:54:23.005Z,8.02
2023-06-13T00:55:27.547Z,7.47
2023-06-13T00:56:31.470Z,7.78
2023-06-13T00:57:35.582Z,7.05
2023-06-13T00:58:37.472Z,7.68
2023-06-13T00:59:39.831Z,7.03
2023-06-13T01:00:45.626Z,6.93
2023-06-13T01:01:49.038Z,7.63
2023-06-13T01:02:51.250Z,7.20
2023-06-13T01:03:53.532Z,8.00
2023-06-13T01:04:55.298Z,7.65
2023-06-13T01:05:57.444Z,8.57
2023-06-13T01:07:01.582Z,7.13
2023-06-13T01:08:10.571Z,6.63
2023-06-13T01:09:14.271Z,6.30
2023-06-13T01:10:16.647Z,8.88
2023-06-13T01:11:26.640Z,9.80
2023-06-13T01:12:38.232Z,7.32
2023-06-13T01:13:59.318Z,7.15
2023-06-13T01:15:13.269Z,7.43
2023-06-13T01:16:40.603Z,7.57
2023-06-13T01:17:51.002Z,8.00
2023-06-13T01:18:56.227Z,7.65
2023-06-13T01:20:00.766Z,8.07
2023-06-13T01:21:06.538Z,7.00
2023-06-13T01:22:18.860Z,6.72
2023-06-13T01:23:38.398Z,6.45
2023-06-13T01:25:01.553Z,7.72
2023-06-13T01:26:15.042Z,7.38
2023-06-13T01:27:18.932Z,7.20
2023-06-13T01:28:23.988Z,7.75
2023-06-13T01:29:26.596Z,7.53
2023-06-13T01:30:28.885Z,7.07
2023-06-13T01:31:33.279Z,6.95
2023-06-13T01:32:36.832Z,8.07
2023-06-13T01:33:39.291Z,7.25
2023-06-13T01:34:41.874Z,7.22
2023-06-13T01:35:44.030Z,7.50
2023-06-13T01:36:45.947Z,6.72
2023-06-13T01:37:47.979Z,8.88
2023-06-13T01:38:50.304Z,7.68
2023-06-13T01:39:52.412Z,8.10
2023-06-13T01:40:54.088Z,7.38
2023-06-13T01:41:55.853Z,7.30
2023-06-13T01:42:57.925Z,8.48
2023-06-13T01:43:59.656Z,6.72
2023-06-13T01:45:02.300Z,11.73
2023-06-13T01:46:13.490Z,7.88
2023-06-13T01:47:24.562Z,8.43
2023-06-13T01:48:42.723Z,7.90
2023-06-13T01:50:02.310Z,8.75
2023-06-13T01:51:20.990Z,7.90
2023-06-13T01:52:44.314Z,8.05
2023-06-13T01:54:04.551Z,6.78
2023-06-13T01:55:13.756Z,8.38
2023-06-13T01:56:20.558Z,8.55
2023-06-13T01:57:27.861Z,6.82
2023-06-13T01:58:53.582Z,7.90
2023-06-13T01:59:57.000Z,7.78
2023-06-13T02:01:02.178Z,8.98
2023-06-13T02:02:05.326Z,7.95
2023-06-13T02:03:08.033Z,8.23
2023-06-13T02:04:10.332Z,6.93
2023-06-13T02:05:13.470Z,8.00
2023-06-13T02:06:15.539Z,7.03
2023-06-13T02:07:17.726Z,8.18
2023-06-13T02:08:20.063Z,6.93
2023-06-13T02:09:21.747Z,8.75
2023-06-13T02:10:24.237Z,8.48
2023-06-13T02:11:27.160Z,6.97
2023-06-13T02:12:28.844Z,6.88
2023-06-13T02:13:30.704Z,8.25
2023-06-13T02:14:34.102Z,7.22
2023-06-13T02:15:35.998Z,7.40
2023-06-13T02:16:41.403Z,6.68
2023-06-13T02:17:43.569Z,7.40
2023-06-13T02:18:48.717Z,8.18
2023-06-13T02:19:50.874Z,8.40
2023-06-13T02:20:52.725Z,6.97
2023-06-13T02:21:54.903Z,8.63
2023-06-13T02:22:58.063Z,7.80
2023-06-13T02:24:00.209Z,9.05
2023-06-13T02:25:02.277Z,8.40
2023-06-13T02:26:04.315Z,7.80
2023-06-13T02:27:07.268Z,8.75
2023-06-13T02:28:09.170Z,7.43
2023-06-13T02:29:11.281Z,8.70
2023-06-13T02:30:13.995Z,7.65
2023-06-13T02:31:17.047Z,7.28
2023-06-13T02:32:20.000Z,9.23
2023-06-13T02:33:21.988Z,8.07
2023-06-13T02:34:24.762Z,9.18
2023-06-13T02:35:26.742Z,9.00
2023-06-13T02:36:28.579Z,7.88
2023-06-13T02:37:30.306Z,8.00
2023-06-13T02:38:32.176Z,10.50
2023-06-13T02:39:33.966Z,8.32
2023-06-13T02:40:39.463Z,9.25
2023-06-13T02:41:41.219Z,6.97
2023-06-13T02:42:43.259Z,9.50
2023-06-13T02:43:45.163Z,7.93
2023-06-13T02:44:46.967Z,7.80
2023-06-13T02:45:49.138Z,8.68
2023-06-13T02:46:51.143Z,7.67
2023-06-13T02:47:53.842Z,8.32
2023-06-13T02:48:56.603Z,8.52
2023-06-13T02:49:58.420Z,7.28
2023-06-13T02:51:00.116Z,7.47
2023-06-13T02:52:01.817Z,9.17
2023-06-13T02:53:03.898Z,8.20
2023-06-13T02:54:05.924Z,7.20
2023-06-13T02:55:09.403Z,7.43
2023-06-13T02:56:11.590Z,8.63
2023-06-13T02:57:13.413Z,7.57
2023-06-13T02:58:15.444Z,8.43
2023-06-13T02:59:18.421Z,7.70
2023-06-13T03:00:20.805Z,7.70
2023-06-13T03:01:22.858Z,7.97
2023-06-13T03:02:27.412Z,8.18
2023-06-13T03:03:29.353Z,7.32
2023-06-13T03:04:33.218Z,9.00
2023-06-13T03:05:37.719Z,7.65
2023-06-13T03:06:42.522Z,8.75
2023-06-13T03:07:48.078Z,7.80
2023-06-13T03:08:49.832Z,7.60
2023-06-13T03:09:51.572Z,8.25
2023-06-13T03:10:53.773Z,8.18
2023-06-13T03:11:55.628Z,9.88
2023-06-13T03:12:57.323Z,8.73
2023-06-13T03:13:59.034Z,7.55
2023-06-13T03:15:01.026Z,8.43
2023-06-13T03:16:04.893Z,7.95
2023-06-13T03:17:08.348Z,9.48
2023-06-13T03:18:10.669Z,8.70
2023-06-13T03:19:12.419Z,8.88
2023-06-13T03:20:14.549Z,8.73
2023-06-13T03:21:16.610Z,8.35
2023-06-13T03:22:18.865Z,9.20
2023-06-13T03:23:21.107Z,8.25
2023-06-13T03:24:22.874Z,7.50
2023-06-13T03:25:26.053Z,7.35
2023-06-13T03:26:30.670Z,7.88
2023-06-13T03:27:33.766Z,9.52
2023-06-13T03:28:36.277Z,9.75
2023-06-13T03:29:38.010Z,9.13
2023-06-13T03:30:40.515Z,9.25
2023-06-13T03:31:42.359Z,7.35
2023-06-13T03:32:44.226Z,7.63
2023-06-13T03:33:45.996Z,7.75
2023-06-13T03:34:49.276Z,8.10
2023-06-13T03:35:51.740Z,9.32
2023-06-13T03:36:53.653Z,8.38
2023-06-13T03:37:55.874Z,9.00
2023-06-13T03:38:57.793Z,8.77
2023-06-13T03:39:59.636Z,8.75
2023-06-13T03:41:01.556Z,8.82
2023-06-13T03:42:04.121Z,7.88
2023-06-13T03:43:06.211Z,16.38
2023-06-13T03:44:07.956Z,12.05
2023-06-13T03:45:10.937Z,10.38
2023-06-13T03:46:15.778Z,9.02
2023-06-13T03:47:18.049Z,9.93
2023-06-13T03:48:20.280Z,8.60
2023-06-13T03:49:22.323Z,7.80
2023-06-13T03:50:24.097Z,8.05
2023-06-13T03:51:26.305Z,8.02
2023-06-13T03:52:28.356Z,8.23
2023-06-13T03:53:30.102Z,7.82
2023-06-13T03:54:32.194Z,8.25
2023-06-13T03:55:34.365Z,8.55
2023-06-13T03:56:36.918Z,8.55
2023-06-13T03:57:39.082Z,9.55
2023-06-13T03:58:40.874Z,8.50
2023-06-13T03:59:43.607Z,9.35
2023-06-13T04:00:45.635Z,8.05
2023-06-13T04:01:47.610Z,8.77
2023-06-13T04:02:50.067Z,8.18
2023-06-13T04:03:52.555Z,8.82
2023-06-13T04:04:57.755Z,8.87
2023-06-13T04:06:01.533Z,8.95
2023-06-13T04:07:06.825Z,10.02
2023-06-13T04:08:09.547Z,9.50
2023-06-13T04:09:11.652Z,9.57
2023-06-13T04:10:13.903Z,8.98
2023-06-13T04:11:15.982Z,9.38
2023-06-13T04:12:18.144Z,9.30
2023-06-13T04:13:19.998Z,8.27
2023-06-13T04:14:21.697Z,9.32
2023-06-13T04:15:24.110Z,9.73
2023-06-13T04:16:26.190Z,9.55
2023-06-13T04:17:28.093Z,10.73
2023-06-13T04:18:31.308Z,8.40
2023-06-13T04:19:33.127Z,7.97
2023-06-13T04:20:35.620Z,8.35
2023-06-13T04:21:37.309Z,9.55
2023-06-13T04:22:39.118Z,9.48
2023-06-13T04:23:41.003Z,7.85
2023-06-13T04:24:42.885Z,7.90
2023-06-13T04:25:44.919Z,7.65
2023-06-13T04:26:46.645Z,9.20
2023-06-13T04:27:49.838Z,9.88
2023-06-13T04:28:52.345Z,7.60
2023-06-13T04:29:55.036Z,6.47
2023-06-13T04:30:58.288Z,7.95
2023-06-13T04:32:00.215Z,7.95
2023-06-13T04:33:03.943Z,7.45
2023-06-13T04:34:06.865Z,7.68
2023-06-13T04:35:08.931Z,9.43
2023-06-13T04:36:10.945Z,8.38
2023-06-13T04:37:13.419Z,8.38
2023-06-13T04:38:23.011Z,8.37
2023-06-13T04:39:25.788Z,8.35
2023-06-13T04:40:33.256Z,7.53
2023-06-13T04:41:39.310Z,8.20
2023-06-13T04:42:41.400Z,8.88
2023-06-13T04:43:43.813Z,8.93
2023-06-13T04:44:47.453Z,8.48
2023-06-13T04:45:50.331Z,8.30
2023-06-13T04:46:58.918Z,9.02
2023-06-13T04:48:02.614Z,8.13
2023-06-13T04:49:08.358Z,9.65
2023-06-13T04:50:10.342Z,8.95
2023-06-13T04:51:13.271Z,8.48
2023-06-13T04:52:17.283Z,8.45
2023-06-13T04:53:22.920Z,10.43
2023-06-13T04:54:24.973Z,8.90
2023-06-13T04:55:30.873Z,8.82
2023-06-13T04:56:32.746Z,9.82
2023-06-13T04:57:34.579Z,9.88
2023-06-13T04:58:37.005Z,10.95
2023-06-13T04:59:40.367Z,11.63
2023-06-13T05:00:42.245Z,8.75
2023-06-13T05:01:45.314Z,9.30
2023-06-13T05:02:47.836Z,8.27
2023-06-13T05:03:52.744Z,8.02
2023-06-13T05:04:56.971Z,8.45
2023-06-13T05:05:58.971Z,7.57
2023-06-13T05:07:02.399Z,7.97
2023-06-13T05:08:04.352Z,9.77
2023-06-13T05:09:07.727Z,8.80
2023-06-13T05:10:12.236Z,9.10
2023-06-13T05:11:15.769Z,9.02
2023-06-13T05:12:17.602Z,10.57
2023-06-13T05:13:19.662Z,9.30
2023-06-13T05:14:21.650Z,8.85
2023-06-13T05:15:24.499Z,11.27
2023-06-13T05:16:31.527Z,9.77
2023-06-13T05:17:33.734Z,8.43
2023-06-13T05:18:35.881Z,9.68
2023-06-13T05:19:38.843Z,8.65
2023-06-13T05:20:42.925Z,8.30
2023-06-13T05:21:44.809Z,9.15
2023-06-13T05:22:46.814Z,8.57
2023-06-13T05:23:49.889Z,9.60
2023-06-13T05:24:51.545Z,9.38
2023-06-13T05:25:53.707Z,9.48
2023-06-13T05:26:55.586Z,11.77
2023-06-13T05:27:57.934Z,9.85
2023-06-13T05:28:59.779Z,9.90
2023-06-13T05:30:01.938Z,9.60
2023-06-13T05:31:03.933Z,9.68
2023-06-13T05:32:06.577Z,9.07
2023-06-13T05:33:08.780Z,9.20
2023-06-13T05:34:10.425Z,9.82
2023-06-13T05:35:12.668Z,10.65
2023-06-13T05:36:15.097Z,9.48
2023-06-13T05:37:17.692Z,8.88
2023-06-13T05:38:19.495Z,9.88
2023-06-13T05:39:21.774Z,11.45
2023-06-13T05:40:23.549Z,10.98
2023-06-13T05:41:25.251Z,9.90
2023-06-13T05:42:27.037Z,12.25
2023-06-13T05:43:29.177Z,10.02
2023-06-13T05:44:31.035Z,11.30
2023-06-13T05:45:32.946Z,8.30
2023-06-13T05:46:35.134Z,9.82
2023-06-13T05:47:37.760Z,9.52
2023-06-13T05:48:40.409Z,9.63
2023-06-13T05:49:42.638Z,12.13
2023-06-13T05:50:44.510Z,10.07
2023-06-13T05:51:46.525Z,9.47
2023-06-13T05:52:49.224Z,10.82
2023-06-13T05:53:52.374Z,10.18
2023-06-13T05:54:54.943Z,9.85
2023-06-13T05:55:59.490Z,10.80
2023-06-13T05:57:03.225Z,10.48
2023-06-13T05:58:05.061Z,12.52
2023-06-13T05:59:07.155Z,11.88
2023-06-13T06:00:13.923Z,11.25
2023-06-13T06:01:16.924Z,10.75
2023-06-13T06:02:18.754Z,12.75
2023-06-13T06:03:20.948Z,13.68
2023-06-13T06:04:23.130Z,12.00
2023-06-13T06:05:25.821Z,10.83
2023-06-13T06:06:27.558Z,11.02
2023-06-13T06:07:29.221Z,9.57
2023-06-13T06:08:31.773Z,11.10
2023-06-13T06:09:33.740Z,8.95
2023-06-13T06:10:35.638Z,10.95
2023-06-13T06:11:38.513Z,10.52
2023-06-13T06:12:40.602Z,11.25
2023-06-13T06:13:42.617Z,11.13
2023-06-13T06:14:44.821Z,10.65
2023-06-13T06:15:46.730Z,12.73
2023-06-13T06:16:48.790Z,12.07
2023-06-13T06:17:52.511Z,12.63
2023-06-13T06:18:55.680Z,11.57
2023-06-13T06:19:57.591Z,9.05
2023-06-13T06:20:59.734Z,9.73
2023-06-13T06:22:01.463Z,11.07
2023-06-13T06:23:03.630Z,12.52
2023-06-13T06:24:05.900Z,11.07
2023-06-13T06:25:10.269Z,11.93
2023-06-13T06:26:12.089Z,13.50
2023-06-13T06:27:14.146Z,10.77
2023-06-13T06:28:19.046Z,12.90
2023-06-13T06:29:21.805Z,21.50
2023-06-13T06:30:24.444Z,10.70
2023-06-13T06:31:26.569Z,11.63
2023-06-13T06:32:28.293Z,12.00
2023-06-13T06:33:30.161Z,10.88
2023-06-13T06:42:57.987Z,11.47
2023-06-13T06:48:22.148Z,8.52
2023-06-13T06:50:21.842Z,7.45
2023-06-13T14:57:54.648Z,6.13
2023-06-13T14:58:56.693Z,8.77
2023-06-13T14:59:59.177Z,4.82
2023-06-13T15:01:01.480Z,6.95
2023-06-13T15:02:03.629Z,5.72
2023-06-13T15:03:05.592Z,5.70
2023-06-13T15:04:08.042Z,6.05
2023-06-13T15:05:10.457Z,7.07
2023-06-13T15:06:13.678Z,9.23
2023-06-13T15:07:15.911Z,9.63
2023-06-13T15:08:17.825Z,5.45
2023-06-13T15:09:19.826Z,6.82
2023-06-13T15:10:22.140Z,10.02
2023-06-13T15:11:24.534Z,8.25
2023-06-13T15:12:26.808Z,7.28
2023-06-13T15:13:28.869Z,5.53
2023-06-13T15:14:31.311Z,5.25
2023-06-13T15:15:35.559Z,6.55
2023-06-13T15:16:40.399Z,5.60
2023-06-13T15:17:42.604Z,5.25
2023-06-13T15:18:46.539Z,6.50
2023-06-13T15:19:48.411Z,6.10
2023-06-13T15:20:51.103Z,6.32
2023-06-13T15:21:53.664Z,7.85
2023-06-13T15:22:55.656Z,6.03
2023-06-13T15:23:58.617Z,8.32
2023-06-13T15:25:01.571Z,6.95
2023-06-13T15:26:04.143Z,6.20
2023-06-13T15:27:07.056Z,6.95
2023-06-13T15:28:09.268Z,6.70
2023-06-13T15:29:12.162Z,6.13
2023-06-13T15:30:14.424Z,7.15
2023-06-13T15:31:16.561Z,6.40
2023-06-13T15:32:21.578Z,4.75
2023-06-13T15:33:24.598Z,6.80
2023-06-13T15:34:30.541Z,6.32
2023-06-13T15:35:32.488Z,4.95
2023-06-13T15:36:34.795Z,6.40
2023-06-13T15:37:36.773Z,4.93
2023-06-13T15:38:39.667Z,4.82
2023-06-13T15:39:43.538Z,5.50
2023-06-13T15:40:46.255Z,5.63
2023-06-13T15:41:48.403Z,5.28
2023-06-13T15:42:50.141Z,7.07
2023-06-13T15:43:52.769Z,7.93
2023-06-13T15:44:54.802Z,5.82
2023-06-13T15:45:57.170Z,5.07
2023-06-13T15:46:59.518Z,6.78
2023-06-13T15:48:01.414Z,7.63
2023-06-13T15:49:04.111Z,6.00
2023-06-13T15:50:06.542Z,6.00
2023-06-13T15:51:08.854Z,6.43
2023-06-13T15:52:11.311Z,5.35
2023-06-13T15:53:14.096Z,4.75
2023-06-13T15:54:16.470Z,7.05
2023-06-13T15:55:18.803Z,6.63
2023-06-13T15:56:21.062Z,6.65
2023-06-13T15:57:23.217Z,6.30
2023-06-13T15:58:25.847Z,13.00
2023-06-13T15:59:27.967Z,12.68
2023-06-13T16:00:30.182Z,10.95
2023-06-13T16:01:32.360Z,8.05
2023-06-13T16:02:34.982Z,7.13
2023-06-13T16:03:37.158Z,4.88
2023-06-13T16:04:39.460Z,6.63
2023-06-13T16:05:41.737Z,6.25
2023-06-13T16:06:43.491Z,5.75
2023-06-13T16:07:45.740Z,5.55
2023-06-13T16:08:48.107Z,5.93
2023-06-13T16:09:49.918Z,6.00
2023-06-13T16:10:51.986Z,6.40
2023-06-13T16:11:53.759Z,5.50
2023-06-13T16:12:55.760Z,4.03
2023-06-13T16:13:58.372Z,5.00
2023-06-13T16:15:00.683Z,5.82
2023-06-13T16:16:02.947Z,6.00
2023-06-13T16:17:05.186Z,7.93
2023-06-13T16:18:07.551Z,6.32
2023-06-13T16:19:09.461Z,8.68
2023-06-13T16:20:11.609Z,6.20
2023-06-13T16:21:13.708Z,6.97
2023-06-13T16:22:16.291Z,6.10
2023-06-13T16:23:18.964Z,5.28
2023-06-13T16:24:21.452Z,5.70
2023-06-13T16:25:23.295Z,7.45
2023-06-13T16:26:25.471Z,5.10
2023-06-13T16:27:27.541Z,7.70
2023-06-13T16:28:29.345Z,5.78
2023-06-13T16:29:31.527Z,7.75
2023-06-13T16:30:33.599Z,5.22
2023-06-13T16:31:36.116Z,6.28
2023-06-13T16:32:38.177Z,5.95
2023-06-13T16:33:40.231Z,6.78
2023-06-13T16:34:42.135Z,5.60
2023-06-13T16:35:44.855Z,6.05
2023-06-13T16:36:47.225Z,8.80
2023-06-13T16:37:49.312Z,5.93
2023-06-13T16:38:51.248Z,5.35
2023-06-13T16:39:53.122Z,6.18
2023-06-13T16:40:56.198Z,4.82
2023-06-13T16:41:58.184Z,5.72
2023-06-13T16:43:00.346Z,5.10
2023-06-13T16:44:02.606Z,8.07
2023-06-13T16:45:05.369Z,6.28
2023-06-13T16:46:08.181Z,10.05
2023-06-13T16:47:10.457Z,6.82
2023-06-13T16:48:12.948Z,6.88
2023-06-13T16:49:15.384Z,6.30
2023-06-13T16:50:18.836Z,5.50
2023-06-13T16:51:21.371Z,5.47
2023-06-13T16:52:23.524Z,5.55
2023-06-13T16:53:25.669Z,5.82
2023-06-13T16:54:30.610Z,5.30
2023-06-13T16:55:32.480Z,7.15
2023-06-13T16:56:35.154Z,7.30
2023-06-13T16:57:37.348Z,7.32
2023-06-13T16:58:39.285Z,6.03
2023-06-13T16:59:41.185Z,6.28
2023-06-13T17:00:43.283Z,5.75
2023-06-13T17:01:45.258Z,5.85
2023-06-13T17:02:47.514Z,5.55
2023-06-13T17:03:49.629Z,5.95
2023-06-13T17:04:51.558Z,5.13
2023-06-13T17:05:53.726Z,5.47
2023-06-13T17:06:57.200Z,6.32
2023-06-13T17:07:59.099Z,5.63
2023-06-13T17:09:01.415Z,6.47
2023-06-13T17:10:03.554Z,5.43
2023-06-13T17:11:05.855Z,6.68
2023-06-13T17:12:10.250Z,5.68
2023-06-13T17:13:12.336Z,5.53
2023-06-13T17:14:14.722Z,5.75
2023-06-13T17:15:16.814Z,6.43
2023-06-13T17:16:19.111Z,5.70
2023-06-13T17:17:21.136Z,6.97
2023-06-13T17:18:23.157Z,6.25
2023-06-13T17:19:25.210Z,6.68
2023-06-13T17:20:27.379Z,4.38
2023-06-13T17:21:29.229Z,6.53
2023-06-13T17:22:31.423Z,4.43
2023-06-13T17:23:33.717Z,5.47
2023-06-13T17:24:35.876Z,5.57
2023-06-13T17:25:37.816Z,4.47
2023-06-13T17:26:42.903Z,3.97
2023-06-13T17:27:46.776Z,5.05
2023-06-13T17:28:50.579Z,5.97
2023-06-13T17:29:52.618Z,5.65
2023-06-13T17:30:55.489Z,6.18
2023-06-13T17:31:58.041Z,5.13
2023-06-13T17:33:00.345Z,5.68
2023-06-13T17:34:02.949Z,5.30
2023-06-13T17:35:05.664Z,5.78
2023-06-13T17:36:08.998Z,6.40
2023-06-13T17:37:11.312Z,8.48
2023-06-13T17:38:14.224Z,4.72
2023-06-13T17:39:17.479Z,6.47
2023-06-13T17:40:19.603Z,6.97
2023-06-13T17:41:22.749Z,5.90
2023-06-13T17:42:24.764Z,6.68
2023-06-13T17:43:26.856Z,6.65
2023-06-13T17:44:29.326Z,6.43
2023-06-13T17:45:31.465Z,9.77
2023-06-13T17:46:33.936Z,6.05
2023-06-13T17:48:41.912Z,6.30
2023-06-13T17:49:44.150Z,4.65
2023-06-13T17:50:46.754Z,6.90
2023-06-13T17:51:49.169Z,4.97
2023-06-13T17:52:50.950Z,5.03
2023-06-13T17:53:54.560Z,5.85
2023-06-13T17:54:56.554Z,10.15
2023-06-13T17:55:58.602Z,8.00
2023-06-13T17:57:00.937Z,6.85
2023-06-13T17:58:03.073Z,6.15
2023-06-13T17:59:05.401Z,5.18
2023-06-13T18:00:08.417Z,8.25
2023-06-13T18:01:10.818Z,6.38
2023-06-13T18:02:15.377Z,6.75
2023-06-13T18:03:17.256Z,5.72
2023-06-13T18:04:19.963Z,5.93
2023-06-13T18:05:23.387Z,4.63
2023-06-13T18:06:27.168Z,5.50
2023-06-13T18:07:29.445Z,6.57
2023-06-13T18:08:31.242Z,5.22
2023-06-13T18:09:34.639Z,6.15
2023-06-13T18:10:38.217Z,6.10
2023-06-13T18:11:40.776Z,7.60
2023-06-13T18:12:42.621Z,6.90
2023-06-13T18:13:44.739Z,5.25
2023-06-13T18:14:46.820Z,6.50
2023-06-13T18:15:49.624Z,4.75
2023-06-13T18:16:51.879Z,7.40
2023-06-13T18:17:56.732Z,7.37
2023-06-13T18:18:59.313Z,5.20
2023-06-13T18:20:01.273Z,5.78
2023-06-13T18:21:03.324Z,5.55
2023-06-13T18:22:05.843Z,6.70
2023-06-13T18:23:08.529Z,6.38
2023-06-13T18:24:10.430Z,6.82
2023-06-13T18:25:12.779Z,6.32
2023-06-13T18:26:14.799Z,6.43
2023-06-13T18:27:16.641Z,5.25
2023-06-13T18:28:18.648Z,7.97
2023-06-13T18:29:23.078Z,7.32
2023-06-13T18:30:25.328Z,6.35
2023-06-13T18:31:27.308Z,6.53
2023-06-13T18:32:29.189Z,6.78
2023-06-13T18:33:32.828Z,6.43
2023-06-13T18:34:35.267Z,6.13
2023-06-13T18:35:39.888Z,5.20
2023-06-13T18:36:41.822Z,5.50
2023-06-13T18:37:43.639Z,7.22
2023-06-13T18:38:48.155Z,6.10
2023-06-13T18:39:50.011Z,9.98
2023-06-13T18:40:51.881Z,5.87
2023-06-13T18:41:54.386Z,5.97
2023-06-13T18:42:56.884Z,7.65
2023-06-13T18:44:04.479Z,5.75
2023-06-13T18:45:07.142Z,5.63
2023-06-13T18:46:08.947Z,8.45
2023-06-13T18:47:11.271Z,6.47
2023-06-13T18:48:13.226Z,4.65
2023-06-13T18:49:15.379Z,6.45
2023-06-13T18:50:18.293Z,5.65
2023-06-13T18:51:21.353Z,7.47
2023-06-13T18:52:23.327Z,7.45
2023-06-13T18:53:26.872Z,5.63
2023-06-13T18:54:29.684Z,6.22
2023-06-13T18:55:32.893Z,7.32
2023-06-13T18:56:35.786Z,7.25
2023-06-13T18:57:38.892Z,5.68
2023-06-13T18:58:40.647Z,4.93
2023-06-13T18:59:44.262Z,7.97
2023-06-13T19:00:46.626Z,6.30
2023-06-13T19:01:50.242Z,7.45
2023-06-13T19:02:53.561Z,6.00
2023-06-13T19:03:55.920Z,6.63
2023-06-13T19:04:58.069Z,7.17
2023-06-13T19:05:59.965Z,5.65
2023-06-13T19:07:01.880Z,5.85
2023-06-13T19:08:04.514Z,4.80
2023-06-13T19:09:06.500Z,6.40
2023-06-13T19:10:09.261Z,6.07
2023-06-13T19:11:12.017Z,5.70
2023-06-13T19:12:18.137Z,4.10
2023-06-13T19:13:22.755Z,6.15
2023-06-13T19:14:24.740Z,6.72
2023-06-13T19:15:27.663Z,4.38
2023-06-13T19:16:30.021Z,5.03
2023-06-13T19:17:32.254Z,6.50
2023-06-13T19:18:34.615Z,9.57
2023-06-13T19:19:38.432Z,5.18
2023-06-13T19:20:40.294Z,6.97
2023-06-13T19:21:43.248Z,4.83
2023-06-13T19:22:45.470Z,5.05
2023-06-13T19:23:47.516Z,7.40
2023-06-13T19:24:49.285Z,4.53
2023-06-13T19:25:51.823Z,6.00
2023-06-13T19:26:54.803Z,10.47
2023-06-13T19:28:06.507Z,5.75
2023-06-13T19:29:19.036Z,6.00
2023-06-13T19:30:21.239Z,5.15
2023-06-13T19:31:24.315Z,7.63
2023-06-13T19:32:26.658Z,7.55
2023-06-13T19:33:29.498Z,4.80
2023-06-13T19:34:31.741Z,5.97
2023-06-13T19:35:36.161Z,5.70
2023-06-13T19:36:39.088Z,7.00
2023-06-13T19:37:41.840Z,8.18
2023-06-13T19:38:43.643Z,8.88
2023-06-13T19:39:46.259Z,5.72
2023-06-13T19:40:48.418Z,7.63
2023-06-13T19:41:50.232Z,7.15
2023-06-13T19:42:52.802Z,7.07
2023-06-13T19:43:54.693Z,7.75
2023-06-13T19:44:56.485Z,8.45
2023-06-13T19:45:59.816Z,6.88
2023-06-13T19:47:01.682Z,6.57
2023-06-13T19:48:09.255Z,6.63
2023-06-13T19:49:11.197Z,5.35
2023-06-13T19:50:14.008Z,5.45
2023-06-13T19:51:19.210Z,7.13
2023-06-13T19:52:21.575Z,6.13
2023-06-13T19:53:23.692Z,5.82
2023-06-13T19:54:28.043Z,6.38
2023-06-13T19:55:30.188Z,9.50
2023-06-13T19:56:33.685Z,9.02
2023-06-13T19:57:36.531Z,7.85
2023-06-13T19:58:40.490Z,7.70
2023-06-13T19:59:42.697Z,6.10
2023-06-13T20:00:45.468Z,8.23
2023-06-13T20:01:48.076Z,6.15
2023-06-13T20:02:50.070Z,7.03
2023-06-13T20:03:52.810Z,7.78
2023-06-13T20:04:54.892Z,7.03
2023-06-13T20:05:58.182Z,10.68
2023-06-13T20:07:00.212Z,8.07
2023-06-13T20:08:02.393Z,7.75
2023-06-13T20:09:06.177Z,7.63
2023-06-13T20:10:08.987Z,7.32
2023-06-13T20:11:10.893Z,7.97
2023-06-13T20:12:13.062Z,7.22
2023-06-13T20:13:16.165Z,8.48
2023-06-13T20:14:18.266Z,6.68
2023-06-13T20:15:20.127Z,9.43
2023-06-13T20:16:22.625Z,6.25
2023-06-13T20:17:24.684Z,7.78
2023-06-13T20:18:26.550Z,6.25
2023-06-13T20:19:28.285Z,9.07
2023-06-13T20:20:30.513Z,6.82
2023-06-13T20:21:32.791Z,8.10
2023-06-13T20:22:35.166Z,8.65
2023-06-13T20:23:37.002Z,8.20
2023-06-13T20:24:38.779Z,5.75
2023-06-13T20:25:41.312Z,8.75
2023-06-13T20:26:43.274Z,6.75
2023-06-13T20:27:47.146Z,7.25
2023-06-13T20:28:48.967Z,6.53
2023-06-13T20:29:52.076Z,7.40
2023-06-13T20:30:54.169Z,6.50
2023-06-13T20:31:56.391Z,6.97
2023-06-13T20:32:59.152Z,8.35
2023-06-13T20:34:01.091Z,6.78
2023-06-13T20:35:03.446Z,7.15
2023-06-13T20:36:05.437Z,6.35
2023-06-13T20:37:08.319Z,6.22
2023-06-13T20:38:10.239Z,8.48
2023-06-13T20:39:13.593Z,7.93
2023-06-13T20:40:16.850Z,8.63
2023-06-13T20:41:18.678Z,6.35
2023-06-13T20:42:23.570Z,8.80
2023-06-13T20:43:25.349Z,8.00
2023-06-13T20:44:29.572Z,8.48
2023-06-13T20:45:32.979Z,8.05
2023-06-13T20:46:39.429Z,7.13
2023-06-13T20:47:42.910Z,6.95
2023-06-13T20:48:46.794Z,7.38
2023-06-13T20:49:49.370Z,8.35
2023-06-13T20:50:52.865Z,6.57
2023-06-13T20:51:54.665Z,7.80
2023-06-13T20:52:57.041Z,9.63
2023-06-13T20:53:59.339Z,6.55
2023-06-13T20:55:01.260Z,7.18
2023-06-13T20:56:03.081Z,8.55
2023-06-13T20:57:05.295Z,7.93
2023-06-13T20:58:07.555Z,8.85
2023-06-13T20:59:12.382Z,6.07
2023-06-13T21:00:24.580Z,8.63
2023-06-13T21:01:28.131Z,8.55
2023-06-13T21:02:30.488Z,7.80
2023-06-13T21:03:35.691Z,6.93
2023-06-13T21:04:38.436Z,7.63
2023-06-13T21:05:40.342Z,9.63
2023-06-13T21:06:42.201Z,7.75
2023-06-13T21:07:44.032Z,8.15
2023-06-13T21:08:45.968Z,8.18
2023-06-13T21:09:47.807Z,8.52
2023-06-13T21:10:49.630Z,8.15
2023-06-13T21:11:51.380Z,7.53
2023-06-13T21:12:56.180Z,6.13
2023-06-13T21:13:58.187Z,9.63
2023-06-13T21:14:59.963Z,6.18
2023-06-13T21:16:01.746Z,8.65
2023-06-13T21:17:03.749Z,9.48
2023-06-13T21:18:06.787Z,9.90
2023-06-13T21:19:09.140Z,8.27
2023-06-13T21:20:15.924Z,7.97
2023-06-13T21:21:18.282Z,9.15
2023-06-13T21:22:20.140Z,6.85
2023-06-13T21:23:22.342Z,7.72
2023-06-13T21:24:27.875Z,8.20
2023-06-13T21:25:30.063Z,6.03
2023-06-13T21:26:32.356Z,9.02
2023-06-13T21:27:34.302Z,10.85
2023-06-13T21:28:36.434Z,6.82
2023-06-13T21:29:42.692Z,8.35
2023-06-13T21:30:44.904Z,10.02
2023-06-13T21:31:46.854Z,8.10
2023-06-13T21:32:49.461Z,7.80
2023-06-13T21:33:53.794Z,6.03
2023-06-13T21:34:56.019Z,10.13
2023-06-13T21:35:58.681Z,9.23
2023-06-13T21:37:01.715Z,7.90
2023-06-13T21:38:03.429Z,8.35
2023-06-13T21:39:05.467Z,9.07
2023-06-13T21:40:12.410Z,7.33
2023-06-13T21:41:15.530Z,11.73
2023-06-13T21:42:17.305Z,6.93
2023-06-13T21:43:19.122Z,8.95
2023-06-13T21:44:21.084Z,7.57
2023-06-13T21:45:32.078Z,6.90
2023-06-13T21:46:35.113Z,9.23
2023-06-13T21:47:37.632Z,8.13
2023-06-13T21:48:41.313Z,8.98
2023-06-13T21:49:43.288Z,7.03
2023-06-13T21:50:45.452Z,7.35
2023-06-13T21:51:47.428Z,8.20
2023-06-13T21:52:49.546Z,7.80
2023-06-13T21:53:51.912Z,9.30
2023-06-13T21:54:54.160Z,8.80
2023-06-13T21:55:58.572Z,8.68
2023-06-13T21:57:00.522Z,9.10
2023-06-13T21:58:02.306Z,8.25
2023-06-13T21:59:07.308Z,10.20
2023-06-13T22:00:17.431Z,7.45
2023-06-13T22:01:23.492Z,9.02
2023-06-13T22:02:25.773Z,8.13
2023-06-13T22:03:27.970Z,6.75
2023-06-13T22:04:30.175Z,8.23
2023-06-13T22:05:32.739Z,7.63
2023-06-13T22:06:35.212Z,8.50
2023-06-13T22:07:37.090Z,8.80
2023-06-13T22:08:39.060Z,8.30
2023-06-13T22:09:41.140Z,8.85
2023-06-13T22:10:43.913Z,8.65
2023-06-13T22:11:46.096Z,8.70
2023-06-13T22:12:48.306Z,8.55
2023-06-13T22:13:51.493Z,7.82
2023-06-13T22:14:53.586Z,8.40
2023-06-13T22:15:56.343Z,7.60
2023-06-13T22:16:58.416Z,8.77
2023-06-13T22:18:00.511Z,8.38
2023-06-13T22:19:02.932Z,7.25